sensor_id;sensor_type;location;lat;lon;timestamp;P1;durP1;ratioP1;P2;durP2;ratioP2
9761;SDS011;4920;49.594;11.022;2022-11-02T00:00:36;16.57;;;10.40;;
9761;SDS011;4920;49.594;11.022;2022-11-02T00:03:06;13.33;;;9.57;;
9761;SDS011;4920;49.594;11.022;2022-11-02T00:05:34;13.57;;;10.00;;
9761;SDS011;4920;49.594;11.022;2022-11-02T00:08:03;12.80;;;9.90;;
9761;SDS011;4920;49.594;11.022;2022-11-02T00:10:32;13.37;;;9.73;;
9761;SDS011;4920;49.594;11.022;2022-11-02T00:13:00;18.17;;;11.67;;
9761;SDS011;4920;49.594;11.022;2022-11-02T00:15:32;14.90;;;10.30;;
9761;SDS011;4920;49.594;11.022;2022-11-02T00:18:03;14.17;;;10.17;;
9761;SDS011;4920;49.594;11.022;2022-11-02T00:20:33;17.67;;;11.20;;
9761;SDS011;4920;49.594;11.022;2022-11-02T00:23:03;13.57;;;10.70;;
9761;SDS011;4920;49.594;11.022;2022-11-02T00:25:36;15.57;;;10.77;;
9761;SDS011;4920;49.594;11.022;2022-11-02T00:28:08;17.17;;;10.77;;
9761;SDS011;4920;49.594;11.022;2022-11-02T00:30:38;14.03;;;10.30;;
9761;SDS011;4920;49.594;11.022;2022-11-02T00:33:06;14.20;;;10.43;;
9761;SDS011;4920;49.594;11.022;2022-11-02T00:35:34;16.03;;;10.67;;
9761;SDS011;4920;49.594;11.022;2022-11-02T00:38:03;14.10;;;10.40;;
9761;SDS011;4920;49.594;11.022;2022-11-02T00:40:32;13.50;;;9.90;;
9761;SDS011;4920;49.594;11.022;2022-11-02T00:43:01;12.27;;;9.70;;
9761;SDS011;4920;49.594;11.022;2022-11-02T00:45:31;13.23;;;9.93;;
9761;SDS011;4920;49.594;11.022;2022-11-02T00:48:00;18.97;;;10.20;;
9761;SDS011;4920;49.594;11.022;2022-11-02T00:50:28;13.43;;;9.90;;
9761;SDS011;4920;49.594;11.022;2022-11-02T00:52:57;14.13;;;9.60;;
9761;SDS011;4920;49.594;11.022;2022-11-02T00:55:25;11.80;;;9.77;;
9761;SDS011;4920;49.594;11.022;2022-11-02T00:57:58;14.80;;;9.60;;
9761;SDS011;4920;49.594;11.022;2022-11-02T01:00:27;13.27;;;9.60;;
9761;SDS011;4920;49.594;11.022;2022-11-02T01:02:59;14.00;;;8.93;;
9761;SDS011;4920;49.594;11.022;2022-11-02T01:05:28;13.00;;;9.33;;
9761;SDS011;4920;49.594;11.022;2022-11-02T01:07:56;13.07;;;9.00;;
9761;SDS011;4920;49.594;11.022;2022-11-02T01:10:25;14.77;;;9.23;;
9761;SDS011;4920;49.594;11.022;2022-11-02T01:12:53;14.57;;;9.00;;
9761;SDS011;4920;49.594;11.022;2022-11-02T01:15:21;12.97;;;9.20;;
9761;SDS011;4920;49.594;11.022;2022-11-02T01:17:49;15.40;;;9.03;;
9761;SDS011;4920;49.594;11.022;2022-11-02T01:20:19;11.53;;;9.27;;
9761;SDS011;4920;49.594;11.022;2022-11-02T01:22:47;11.83;;;9.13;;
9761;SDS011;4920;49.594;11.022;2022-11-02T01:25:17;14.53;;;9.60;;
9761;SDS011;4920;49.594;11.022;2022-11-02T01:27:45;13.70;;;9.53;;
9761;SDS011;4920;49.594;11.022;2022-11-02T01:30:13;12.00;;;9.07;;
9761;SDS011;4920;49.594;11.022;2022-11-02T01:32:42;16.67;;;9.30;;
9761;SDS011;4920;49.594;11.022;2022-11-02T01:35:11;12.67;;;9.17;;
9761;SDS011;4920;49.594;11.022;2022-11-02T01:37:40;10.87;;;9.13;;
9761;SDS011;4920;49.594;11.022;2022-11-02T01:40:09;14.17;;;9.53;;
9761;SDS011;4920;49.594;11.022;2022-11-02T01:42:38;14.13;;;8.83;;
9761;SDS011;4920;49.594;11.022;2022-11-02T01:45:06;16.03;;;9.90;;
9761;SDS011;4920;49.594;11.022;2022-11-02T01:47:37;11.80;;;8.90;;
9761;SDS011;4920;49.594;11.022;2022-11-02T01:50:09;14.57;;;9.03;;
9761;SDS011;4920;49.594;11.022;2022-11-02T01:52:41;12.80;;;9.30;;
9761;SDS011;4920;49.594;11.022;2022-11-02T01:55:10;14.77;;;9.80;;
9761;SDS011;4920;49.594;11.022;2022-11-02T01:57:44;10.67;;;9.30;;
9761;SDS011;4920;49.594;11.022;2022-11-02T02:00:15;16.53;;;9.80;;
9761;SDS011;4920;49.594;11.022;2022-11-02T02:02:46;14.83;;;9.27;;
9761;SDS011;4920;49.594;11.022;2022-11-02T02:05:19;15.33;;;9.13;;
9761;SDS011;4920;49.594;11.022;2022-11-02T02:07:51;16.47;;;9.70;;
9761;SDS011;4920;49.594;11.022;2022-11-02T02:10:20;13.50;;;9.70;;
9761;SDS011;4920;49.594;11.022;2022-11-02T02:12:48;13.83;;;9.43;;
9761;SDS011;4920;49.594;11.022;2022-11-02T02:15:18;14.87;;;10.10;;
9761;SDS011;4920;49.594;11.022;2022-11-02T02:17:52;17.40;;;9.77;;
9761;SDS011;4920;49.594;11.022;2022-11-02T02:20:34;15.73;;;10.03;;
9761;SDS011;4920;49.594;11.022;2022-11-02T02:23:31;15.70;;;10.43;;
9761;SDS011;4920;49.594;11.022;2022-11-02T02:29:15;18.10;;;11.07;;
9761;SDS011;4920;49.594;11.022;2022-11-02T02:31:48;13.90;;;10.73;;
9761;SDS011;4920;49.594;11.022;2022-11-02T02:34:22;20.17;;;10.70;;
9761;SDS011;4920;49.594;11.022;2022-11-02T02:36:57;16.33;;;10.60;;
9761;SDS011;4920;49.594;11.022;2022-11-02T02:39:32;18.97;;;10.90;;
9761;SDS011;4920;49.594;11.022;2022-11-02T02:42:09;18.20;;;11.17;;
9761;SDS011;4920;49.594;11.022;2022-11-02T02:44:43;14.30;;;10.50;;
9761;SDS011;4920;49.594;11.022;2022-11-02T02:47:16;17.17;;;11.40;;
9761;SDS011;4920;49.594;11.022;2022-11-02T02:49:50;18.67;;;11.87;;
9761;SDS011;4920;49.594;11.022;2022-11-02T02:52:20;19.00;;;11.40;;
9761;SDS011;4920;49.594;11.022;2022-11-02T02:54:52;15.80;;;11.20;;
9761;SDS011;4920;49.594;11.022;2022-11-02T02:57:24;17.70;;;11.47;;
9761;SDS011;4920;49.594;11.022;2022-11-02T02:59:56;17.07;;;11.37;;
9761;SDS011;4920;49.594;11.022;2022-11-02T03:02:25;14.77;;;11.10;;
9761;SDS011;4920;49.594;11.022;2022-11-02T03:04:57;19.53;;;11.27;;
9761;SDS011;4920;49.594;11.022;2022-11-02T03:07:26;13.57;;;10.87;;
9761;SDS011;4920;49.594;11.022;2022-11-02T03:10:05;16.50;;;11.80;;
9761;SDS011;4920;49.594;11.022;2022-11-02T03:12:40;20.13;;;11.80;;
9761;SDS011;4920;49.594;11.022;2022-11-02T03:15:21;14.83;;;10.93;;
9761;SDS011;4920;49.594;11.022;2022-11-02T03:17:56;16.30;;;11.27;;
9761;SDS011;4920;49.594;11.022;2022-11-02T03:20:32;17.50;;;11.97;;
9761;SDS011;4920;49.594;11.022;2022-11-02T03:23:08;15.87;;;11.63;;
9761;SDS011;4920;49.594;11.022;2022-11-02T03:25:48;16.47;;;11.40;;
9761;SDS011;4920;49.594;11.022;2022-11-02T03:28:25;16.07;;;11.27;;
9761;SDS011;4920;49.594;11.022;2022-11-02T03:31:06;20.07;;;12.17;;
9761;SDS011;4920;49.594;11.022;2022-11-02T03:33:40;19.50;;;11.90;;
9761;SDS011;4920;49.594;11.022;2022-11-02T03:36:14;17.67;;;12.00;;
9761;SDS011;4920;49.594;11.022;2022-11-02T03:38:47;17.47;;;11.40;;
9761;SDS011;4920;49.594;11.022;2022-11-02T03:41:19;17.23;;;11.87;;
9761;SDS011;4920;49.594;11.022;2022-11-02T03:43:50;23.13;;;12.40;;
9761;SDS011;4920;49.594;11.022;2022-11-02T03:46:26;18.00;;;11.80;;
9761;SDS011;4920;49.594;11.022;2022-11-02T03:49:00;16.63;;;12.30;;
9761;SDS011;4920;49.594;11.022;2022-11-02T03:51:35;18.37;;;11.63;;
9761;SDS011;4920;49.594;11.022;2022-11-02T03:54:10;17.60;;;12.17;;
9761;SDS011;4920;49.594;11.022;2022-11-02T03:56:45;18.97;;;11.33;;
9761;SDS011;4920;49.594;11.022;2022-11-02T03:59:15;18.37;;;11.37;;
9761;SDS011;4920;49.594;11.022;2022-11-02T04:01:47;20.23;;;11.17;;
9761;SDS011;4920;49.594;11.022;2022-11-02T04:04:19;18.00;;;11.47;;
9761;SDS011;4920;49.594;11.022;2022-11-02T04:06:47;18.37;;;10.50;;
9761;SDS011;4920;49.594;11.022;2022-11-02T04:09:16;16.10;;;10.10;;
9761;SDS011;4920;49.594;11.022;2022-11-02T04:11:45;16.53;;;10.77;;
9761;SDS011;4920;49.594;11.022;2022-11-02T04:14:31;19.70;;;10.07;;
9761;SDS011;4920;49.594;11.022;2022-11-02T04:17:16;15.00;;;9.80;;
9761;SDS011;4920;49.594;11.022;2022-11-02T04:20:16;17.93;;;9.87;;
9761;SDS011;4920;49.594;11.022;2022-11-02T04:22:46;17.90;;;9.80;;
9761;SDS011;4920;49.594;11.022;2022-11-02T04:25:31;15.30;;;9.03;;
9761;SDS011;4920;49.594;11.022;2022-11-02T04:28:11;15.97;;;9.17;;
9761;SDS011;4920;49.594;11.022;2022-11-02T04:30:45;17.40;;;9.30;;
9761;SDS011;4920;49.594;11.022;2022-11-02T04:33:15;20.47;;;9.00;;
9761;SDS011;4920;49.594;11.022;2022-11-02T04:36:07;14.17;;;8.53;;
9761;SDS011;4920;49.594;11.022;2022-11-02T04:38:37;16.03;;;8.63;;
9761;SDS011;4920;49.594;11.022;2022-11-02T04:41:21;14.90;;;8.20;;
9761;SDS011;4920;49.594;11.022;2022-11-02T04:44:19;15.80;;;8.60;;
9761;SDS011;4920;49.594;11.022;2022-11-02T04:47:13;16.20;;;8.40;;
9761;SDS011;4920;49.594;11.022;2022-11-02T04:49:43;19.03;;;8.17;;
9761;SDS011;4920;49.594;11.022;2022-11-02T04:52:15;14.60;;;8.00;;
9761;SDS011;4920;49.594;11.022;2022-11-02T04:54:47;18.87;;;7.90;;
9761;SDS011;4920;49.594;11.022;2022-11-02T05:00:12;18.03;;;8.93;;
9761;SDS011;4920;49.594;11.022;2022-11-02T05:02:41;14.93;;;7.73;;
9761;SDS011;4920;49.594;11.022;2022-11-02T05:05:11;10.73;;;7.67;;
9761;SDS011;4920;49.594;11.022;2022-11-02T05:07:40;14.23;;;8.03;;
9761;SDS011;4920;49.594;11.022;2022-11-02T05:10:09;13.60;;;7.47;;
9761;SDS011;4920;49.594;11.022;2022-11-02T05:12:38;9.90;;;7.50;;
9761;SDS011;4920;49.594;11.022;2022-11-02T05:15:07;13.47;;;7.90;;
9761;SDS011;4920;49.594;11.022;2022-11-02T05:17:36;18.40;;;8.00;;
9761;SDS011;4920;49.594;11.022;2022-11-02T05:20:05;12.03;;;7.70;;
9761;SDS011;4920;49.594;11.022;2022-11-02T05:22:35;12.13;;;7.60;;
9761;SDS011;4920;49.594;11.022;2022-11-02T05:25:07;17.00;;;8.77;;
9761;SDS011;4920;49.594;11.022;2022-11-02T05:27:36;12.67;;;8.73;;
9761;SDS011;4920;49.594;11.022;2022-11-02T05:30:05;13.83;;;8.93;;
9761;SDS011;4920;49.594;11.022;2022-11-02T05:35:28;15.97;;;8.50;;
9761;SDS011;4920;49.594;11.022;2022-11-02T05:37:58;10.97;;;7.60;;
9761;SDS011;4920;49.594;11.022;2022-11-02T05:40:27;14.97;;;8.23;;
9761;SDS011;4920;49.594;11.022;2022-11-02T05:42:57;13.00;;;8.50;;
9761;SDS011;4920;49.594;11.022;2022-11-02T05:45:27;17.37;;;9.03;;
9761;SDS011;4920;49.594;11.022;2022-11-02T05:50:58;21.03;;;9.00;;
9761;SDS011;4920;49.594;11.022;2022-11-02T05:53:31;16.67;;;8.37;;
9761;SDS011;4920;49.594;11.022;2022-11-02T05:56:04;15.67;;;9.20;;
9761;SDS011;4920;49.594;11.022;2022-11-02T05:58:33;15.40;;;9.63;;
9761;SDS011;4920;49.594;11.022;2022-11-02T06:01:04;16.50;;;8.97;;
9761;SDS011;4920;49.594;11.022;2022-11-02T06:03:34;12.67;;;8.90;;
9761;SDS011;4920;49.594;11.022;2022-11-02T06:06:03;14.30;;;8.50;;
9761;SDS011;4920;49.594;11.022;2022-11-02T06:08:34;18.50;;;9.47;;
9761;SDS011;4920;49.594;11.022;2022-11-02T06:11:04;16.47;;;8.87;;
9761;SDS011;4920;49.594;11.022;2022-11-02T06:13:32;15.00;;;9.13;;
9761;SDS011;4920;49.594;11.022;2022-11-02T06:16:01;14.03;;;8.80;;
9761;SDS011;4920;49.594;11.022;2022-11-02T06:18:31;9.93;;;7.77;;
9761;SDS011;4920;49.594;11.022;2022-11-02T06:20:59;11.30;;;8.03;;
9761;SDS011;4920;49.594;11.022;2022-11-02T06:23:28;16.77;;;8.23;;
9761;SDS011;4920;49.594;11.022;2022-11-02T06:25:58;13.67;;;7.97;;
9761;SDS011;4920;49.594;11.022;2022-11-02T06:28:27;13.83;;;8.13;;
9761;SDS011;4920;49.594;11.022;2022-11-02T06:30:56;14.13;;;8.07;;
9761;SDS011;4920;49.594;11.022;2022-11-02T06:33:24;12.40;;;7.20;;
9761;SDS011;4920;49.594;11.022;2022-11-02T06:35:53;12.13;;;7.17;;
9761;SDS011;4920;49.594;11.022;2022-11-02T06:38:22;10.83;;;7.00;;
9761;SDS011;4920;49.594;11.022;2022-11-02T06:40:54;13.20;;;6.97;;
9761;SDS011;4920;49.594;11.022;2022-11-02T06:43:25;16.20;;;7.63;;
9761;SDS011;4920;49.594;11.022;2022-11-02T06:45:53;11.80;;;6.90;;
9761;SDS011;4920;49.594;11.022;2022-11-02T06:48:22;13.73;;;7.17;;
9761;SDS011;4920;49.594;11.022;2022-11-02T06:50:58;13.27;;;7.00;;
9761;SDS011;4920;49.594;11.022;2022-11-02T06:53:26;13.40;;;6.70;;
9761;SDS011;4920;49.594;11.022;2022-11-02T06:55:55;15.53;;;6.90;;
9761;SDS011;4920;49.594;11.022;2022-11-02T06:58:26;16.43;;;7.30;;
9761;SDS011;4920;49.594;11.022;2022-11-02T07:00:58;13.87;;;6.70;;
9761;SDS011;4920;49.594;11.022;2022-11-02T07:03:28;12.60;;;6.90;;
9761;SDS011;4920;49.594;11.022;2022-11-02T07:05:57;10.60;;;6.27;;
9761;SDS011;4920;49.594;11.022;2022-11-02T07:08:26;9.63;;;5.97;;
9761;SDS011;4920;49.594;11.022;2022-11-02T07:10:55;12.43;;;6.50;;
9761;SDS011;4920;49.594;11.022;2022-11-02T07:13:25;9.80;;;5.63;;
9761;SDS011;4920;49.594;11.022;2022-11-02T07:15:53;10.90;;;5.70;;
9761;SDS011;4920;49.594;11.022;2022-11-02T07:18:22;8.40;;;5.57;;
9761;SDS011;4920;49.594;11.022;2022-11-02T07:20:51;16.53;;;6.40;;
9761;SDS011;4920;49.594;11.022;2022-11-02T07:23:19;10.57;;;5.53;;
9761;SDS011;4920;49.594;11.022;2022-11-02T07:25:49;9.10;;;5.23;;
9761;SDS011;4920;49.594;11.022;2022-11-02T07:28:18;11.00;;;5.10;;
9761;SDS011;4920;49.594;11.022;2022-11-02T07:30:48;10.13;;;5.87;;
9761;SDS011;4920;49.594;11.022;2022-11-02T07:33:16;9.83;;;4.97;;
9761;SDS011;4920;49.594;11.022;2022-11-02T07:35:44;11.17;;;4.90;;
9761;SDS011;4920;49.594;11.022;2022-11-02T07:38:13;10.50;;;5.03;;
9761;SDS011;4920;49.594;11.022;2022-11-02T07:40:41;9.80;;;4.47;;
9761;SDS011;4920;49.594;11.022;2022-11-02T07:43:09;8.30;;;4.67;;
9761;SDS011;4920;49.594;11.022;2022-11-02T07:45:43;14.40;;;4.90;;
9761;SDS011;4920;49.594;11.022;2022-11-02T07:48:13;11.07;;;5.37;;
9761;SDS011;4920;49.594;11.022;2022-11-02T07:50:41;11.03;;;4.40;;
9761;SDS011;4920;49.594;11.022;2022-11-02T07:53:10;8.93;;;4.40;;
9761;SDS011;4920;49.594;11.022;2022-11-02T07:55:38;9.07;;;4.50;;
9761;SDS011;4920;49.594;11.022;2022-11-02T07:58:08;12.00;;;4.50;;
9761;SDS011;4920;49.594;11.022;2022-11-02T08:00:39;8.47;;;4.23;;
9761;SDS011;4920;49.594;11.022;2022-11-02T08:03:08;9.17;;;3.73;;
9761;SDS011;4920;49.594;11.022;2022-11-02T08:05:40;9.37;;;4.03;;
9761;SDS011;4920;49.594;11.022;2022-11-02T08:08:12;11.30;;;4.20;;
9761;SDS011;4920;49.594;11.022;2022-11-02T08:10:43;8.27;;;3.90;;
9761;SDS011;4920;49.594;11.022;2022-11-02T08:13:14;7.50;;;3.90;;
9761;SDS011;4920;49.594;11.022;2022-11-02T08:18:41;6.80;;;3.30;;
9761;SDS011;4920;49.594;11.022;2022-11-02T08:24:05;7.43;;;3.50;;
9761;SDS011;4920;49.594;11.022;2022-11-02T08:26:34;11.93;;;3.70;;
9761;SDS011;4920;49.594;11.022;2022-11-02T08:29:06;11.07;;;3.87;;
9761;SDS011;4920;49.594;11.022;2022-11-02T08:31:34;8.23;;;3.60;;
9761;SDS011;4920;49.594;11.022;2022-11-02T08:34:03;11.30;;;3.80;;
9761;SDS011;4920;49.594;11.022;2022-11-02T08:36:33;8.63;;;3.43;;
9761;SDS011;4920;49.594;11.022;2022-11-02T08:39:03;6.30;;;2.90;;
9761;SDS011;4920;49.594;11.022;2022-11-02T08:41:31;5.63;;;3.00;;
9761;SDS011;4920;49.594;11.022;2022-11-02T08:44:00;7.43;;;3.10;;
9761;SDS011;4920;49.594;11.022;2022-11-02T08:46:28;8.50;;;2.73;;
9761;SDS011;4920;49.594;11.022;2022-11-02T08:48:56;7.20;;;2.80;;
9761;SDS011;4920;49.594;11.022;2022-11-02T08:51:25;6.67;;;2.60;;
9761;SDS011;4920;49.594;11.022;2022-11-02T08:53:53;7.20;;;2.80;;
9761;SDS011;4920;49.594;11.022;2022-11-02T09:00:09;9.03;;;2.80;;
9761;SDS011;4920;49.594;11.022;2022-11-02T09:02:38;8.97;;;2.70;;
9761;SDS011;4920;49.594;11.022;2022-11-02T09:05:06;8.60;;;2.60;;
9761;SDS011;4920;49.594;11.022;2022-11-02T09:07:35;9.50;;;2.70;;
9761;SDS011;4920;49.594;11.022;2022-11-02T09:10:03;6.37;;;2.20;;
9761;SDS011;4920;49.594;11.022;2022-11-02T09:12:33;7.70;;;2.03;;
9761;SDS011;4920;49.594;11.022;2022-11-02T09:15:01;7.27;;;1.97;;
9761;SDS011;4920;49.594;11.022;2022-11-02T09:17:30;5.20;;;1.60;;
9761;SDS011;4920;49.594;11.022;2022-11-02T09:19:58;7.83;;;1.90;;
9761;SDS011;4920;49.594;11.022;2022-11-02T09:22:27;5.73;;;2.07;;
9761;SDS011;4920;49.594;11.022;2022-11-02T09:24:59;5.63;;;1.97;;
9761;SDS011;4920;49.594;11.022;2022-11-02T09:27:28;8.17;;;2.60;;
9761;SDS011;4920;49.594;11.022;2022-11-02T09:29:56;7.67;;;2.10;;
9761;SDS011;4920;49.594;11.022;2022-11-02T09:32:24;16.93;;;2.60;;
9761;SDS011;4920;49.594;11.022;2022-11-02T09:34:55;6.10;;;1.80;;
9761;SDS011;4920;49.594;11.022;2022-11-02T09:37:23;4.95;;;1.92;;
9761;SDS011;4920;49.594;11.022;2022-11-02T09:39:52;7.00;;;2.10;;
9761;SDS011;4920;49.594;11.022;2022-11-02T09:42:21;6.78;;;2.03;;
9761;SDS011;4920;49.594;11.022;2022-11-02T09:44:55;8.45;;;2.00;;
9761;SDS011;4920;49.594;11.022;2022-11-02T09:47:27;7.15;;;2.58;;
9761;SDS011;4920;49.594;11.022;2022-11-02T09:50:21;6.60;;;2.35;;
9761;SDS011;4920;49.594;11.022;2022-11-02T09:52:52;11.85;;;6.05;;
9761;SDS011;4920;49.594;11.022;2022-11-02T09:55:25;9.90;;;2.55;;
9761;SDS011;4920;49.594;11.022;2022-11-02T09:57:58;7.15;;;3.05;;
9761;SDS011;4920;49.594;11.022;2022-11-02T10:00:32;8.32;;;2.58;;
9761;SDS011;4920;49.594;11.022;2022-11-02T10:03:04;11.95;;;2.80;;
9761;SDS011;4920;49.594;11.022;2022-11-02T10:05:46;9.38;;;2.78;;
9761;SDS011;4920;49.594;11.022;2022-11-02T10:08:23;9.48;;;4.07;;
9761;SDS011;4920;49.594;11.022;2022-11-02T10:10:59;9.73;;;4.20;;
9761;SDS011;4920;49.594;11.022;2022-11-02T10:13:35;6.90;;;1.83;;
9761;SDS011;4920;49.594;11.022;2022-11-02T10:16:09;8.00;;;2.95;;
9761;SDS011;4920;49.594;11.022;2022-11-02T10:18:42;8.88;;;3.17;;
9761;SDS011;4920;49.594;11.022;2022-11-02T10:21:17;7.25;;;2.45;;
9761;SDS011;4920;49.594;11.022;2022-11-02T10:23:48;9.98;;;3.10;;
9761;SDS011;4920;49.594;11.022;2022-11-02T10:26:20;7.25;;;3.47;;
9761;SDS011;4920;49.594;11.022;2022-11-02T10:28:52;8.55;;;3.30;;
9761;SDS011;4920;49.594;11.022;2022-11-02T10:31:26;12.00;;;3.05;;
9761;SDS011;4920;49.594;11.022;2022-11-02T10:33:58;9.32;;;5.10;;
9761;SDS011;4920;49.594;11.022;2022-11-02T10:36:47;9.88;;;4.20;;
9761;SDS011;4920;49.594;11.022;2022-11-02T10:39:24;9.40;;;1.90;;
9761;SDS011;4920;49.594;11.022;2022-11-02T10:42:03;7.30;;;2.28;;
9761;SDS011;4920;49.594;11.022;2022-11-02T10:44:50;64.78;;;25.00;;
9761;SDS011;4920;49.594;11.022;2022-11-02T10:47:30;14.52;;;5.60;;
9761;SDS011;4920;49.594;11.022;2022-11-02T10:50:10;8.88;;;4.03;;
9761;SDS011;4920;49.594;11.022;2022-11-02T10:52:47;15.50;;;6.20;;
9761;SDS011;4920;49.594;11.022;2022-11-02T10:55:20;8.55;;;2.00;;
9761;SDS011;4920;49.594;11.022;2022-11-02T10:57:52;10.20;;;2.20;;
9761;SDS011;4920;49.594;11.022;2022-11-02T11:00:28;6.03;;;2.30;;
9761;SDS011;4920;49.594;11.022;2022-11-02T11:03:06;8.77;;;2.15;;
9761;SDS011;4920;49.594;11.022;2022-11-02T11:05:37;7.63;;;2.45;;
9761;SDS011;4920;49.594;11.022;2022-11-02T11:08:28;12.02;;;2.08;;
9761;SDS011;4920;49.594;11.022;2022-11-02T11:11:14;7.65;;;2.45;;
9761;SDS011;4920;49.594;11.022;2022-11-02T11:13:53;6.15;;;2.38;;
9761;SDS011;4920;49.594;11.022;2022-11-02T11:16:46;7.88;;;2.10;;
9761;SDS011;4920;49.594;11.022;2022-11-02T11:19:28;8.43;;;2.20;;
9761;SDS011;4920;49.594;11.022;2022-11-02T11:22:00;9.60;;;2.13;;
9761;SDS011;4920;49.594;11.022;2022-11-02T11:24:31;10.80;;;2.70;;
9761;SDS011;4920;49.594;11.022;2022-11-02T11:29:55;7.65;;;2.03;;
9761;SDS011;4920;49.594;11.022;2022-11-02T11:32:25;8.88;;;2.17;;
9761;SDS011;4920;49.594;11.022;2022-11-02T11:34:57;5.03;;;1.95;;
9761;SDS011;4920;49.594;11.022;2022-11-02T11:37:27;7.07;;;2.25;;
9761;SDS011;4920;49.594;11.022;2022-11-02T11:39:58;5.90;;;2.17;;
9761;SDS011;4920;49.594;11.022;2022-11-02T11:42:30;11.90;;;2.40;;
9761;SDS011;4920;49.594;11.022;2022-11-02T11:45:03;7.63;;;2.13;;
9761;SDS011;4920;49.594;11.022;2022-11-02T11:47:34;8.75;;;2.42;;
9761;SDS011;4920;49.594;11.022;2022-11-02T11:50:05;9.00;;;2.25;;
9761;SDS011;4920;49.594;11.022;2022-11-02T11:53:06;8.00;;;2.20;;
9761;SDS011;4920;49.594;11.022;2022-11-02T11:55:38;6.40;;;2.13;;
9761;SDS011;4920;49.594;11.022;2022-11-02T11:58:15;10.20;;;2.53;;
9761;SDS011;4920;49.594;11.022;2022-11-02T12:01:00;9.25;;;2.40;;
9761;SDS011;4920;49.594;11.022;2022-11-02T12:06:22;7.03;;;2.15;;
9761;SDS011;4920;49.594;11.022;2022-11-02T12:08:57;14.30;;;4.00;;
9761;SDS011;4920;49.594;11.022;2022-11-02T12:11:38;6.57;;;1.95;;
9761;SDS011;4920;49.594;11.022;2022-11-02T12:14:25;8.50;;;2.17;;
9761;SDS011;4920;49.594;11.022;2022-11-02T12:17:13;8.00;;;2.17;;
9761;SDS011;4920;49.594;11.022;2022-11-02T12:20:11;8.63;;;2.25;;
9761;SDS011;4920;49.594;11.022;2022-11-02T12:22:55;12.32;;;2.58;;
9761;SDS011;4920;49.594;11.022;2022-11-02T12:25:30;5.47;;;1.90;;
9761;SDS011;4920;49.594;11.022;2022-11-02T12:28:09;5.68;;;1.75;;
9761;SDS011;4920;49.594;11.022;2022-11-02T12:30:49;5.85;;;1.70;;
9761;SDS011;4920;49.594;11.022;2022-11-02T12:33:31;11.02;;;2.03;;
9761;SDS011;4920;49.594;11.022;2022-11-02T12:36:15;9.68;;;1.95;;
9761;SDS011;4920;49.594;11.022;2022-11-02T12:38:58;8.05;;;1.90;;
9761;SDS011;4920;49.594;11.022;2022-11-02T12:41:41;5.43;;;1.90;;
9761;SDS011;4920;49.594;11.022;2022-11-02T12:44:25;11.55;;;1.75;;
9761;SDS011;4920;49.594;11.022;2022-11-02T12:47:24;7.55;;;1.80;;
9761;SDS011;4920;49.594;11.022;2022-11-02T12:50:06;6.25;;;1.80;;
9761;SDS011;4920;49.594;11.022;2022-11-02T12:52:51;8.77;;;4.07;;
9761;SDS011;4920;49.594;11.022;2022-11-02T12:55:31;12.10;;;3.00;;
9761;SDS011;4920;49.594;11.022;2022-11-02T12:58:05;10.85;;;6.72;;
9761;SDS011;4920;49.594;11.022;2022-11-02T13:00:40;9.68;;;4.80;;
9761;SDS011;4920;49.594;11.022;2022-11-02T13:03:13;13.95;;;3.40;;
9761;SDS011;4920;49.594;11.022;2022-11-02T13:05:50;9.73;;;2.50;;
9761;SDS011;4920;49.594;11.022;2022-11-02T13:08:30;8.57;;;2.03;;
9761;SDS011;4920;49.594;11.022;2022-11-02T13:11:03;12.50;;;4.97;;
9761;SDS011;4920;49.594;11.022;2022-11-02T13:13:34;7.72;;;2.20;;
9761;SDS011;4920;49.594;11.022;2022-11-02T13:16:07;8.60;;;1.55;;
9761;SDS011;4920;49.594;11.022;2022-11-02T13:18:38;6.30;;;2.25;;
9761;SDS011;4920;49.594;11.022;2022-11-02T13:21:11;5.18;;;1.52;;
9761;SDS011;4920;49.594;11.022;2022-11-02T13:23:42;5.97;;;2.00;;
9761;SDS011;4920;49.594;11.022;2022-11-02T13:26:16;7.50;;;2.13;;
9761;SDS011;4920;49.594;11.022;2022-11-02T13:28:53;5.60;;;2.40;;
9761;SDS011;4920;49.594;11.022;2022-11-02T13:31:28;9.68;;;2.45;;
9761;SDS011;4920;49.594;11.022;2022-11-02T13:34:00;5.65;;;1.70;;
9761;SDS011;4920;49.594;11.022;2022-11-02T13:36:34;6.22;;;1.77;;
9761;SDS011;4920;49.594;11.022;2022-11-02T13:39:05;5.13;;;2.10;;
9761;SDS011;4920;49.594;11.022;2022-11-02T13:41:47;7.30;;;2.22;;
9761;SDS011;4920;49.594;11.022;2022-11-02T13:47:55;6.00;;;1.40;;
9761;SDS011;4920;49.594;11.022;2022-11-02T13:50:47;5.85;;;1.80;;
9761;SDS011;4920;49.594;11.022;2022-11-02T13:53:17;9.25;;;1.90;;
9761;SDS011;4920;49.594;11.022;2022-11-02T13:55:50;5.55;;;1.50;;
9761;SDS011;4920;49.594;11.022;2022-11-02T13:58:22;6.57;;;1.95;;
9761;SDS011;4920;49.594;11.022;2022-11-02T14:00:53;8.25;;;1.70;;
9761;SDS011;4920;49.594;11.022;2022-11-02T14:03:29;5.88;;;1.60;;
9761;SDS011;4920;49.594;11.022;2022-11-02T14:06:08;7.43;;;1.75;;
9761;SDS011;4920;49.594;11.022;2022-11-02T14:08:38;6.25;;;1.77;;
9761;SDS011;4920;49.594;11.022;2022-11-02T14:11:26;6.57;;;1.65;;
9761;SDS011;4920;49.594;11.022;2022-11-02T14:14:05;3.22;;;1.42;;
9761;SDS011;4920;49.594;11.022;2022-11-02T14:16:42;6.05;;;1.75;;
9761;SDS011;4920;49.594;11.022;2022-11-02T14:22:33;6.75;;;2.50;;
9761;SDS011;4920;49.594;11.022;2022-11-02T14:25:14;6.57;;;1.80;;
9761;SDS011;4920;49.594;11.022;2022-11-02T14:27:44;5.57;;;2.10;;
9761;SDS011;4920;49.594;11.022;2022-11-02T14:33:08;9.75;;;2.25;;
9761;SDS011;4920;49.594;11.022;2022-11-02T14:35:59;6.85;;;2.28;;
9761;SDS011;4920;49.594;11.022;2022-11-02T14:41:44;5.68;;;1.80;;
9761;SDS011;4920;49.594;11.022;2022-11-02T14:44:31;11.57;;;2.60;;
9761;SDS011;4920;49.594;11.022;2022-11-02T14:47:13;7.70;;;2.10;;
9761;SDS011;4920;49.594;11.022;2022-11-02T14:49:47;7.20;;;2.47;;
9761;SDS011;4920;49.594;11.022;2022-11-02T14:52:21;9.32;;;2.10;;
9761;SDS011;4920;49.594;11.022;2022-11-02T14:54:53;7.88;;;3.33;;
9761;SDS011;4920;49.594;11.022;2022-11-02T14:57:29;12.32;;;2.85;;
9761;SDS011;4920;49.594;11.022;2022-11-02T15:00:04;8.20;;;2.28;;
9761;SDS011;4920;49.594;11.022;2022-11-02T15:02:44;8.63;;;2.92;;
9761;SDS011;4920;49.594;11.022;2022-11-02T15:05:21;7.93;;;2.70;;
9761;SDS011;4920;49.594;11.022;2022-11-02T15:07:53;9.77;;;2.70;;
9761;SDS011;4920;49.594;11.022;2022-11-02T15:10:36;7.03;;;2.35;;
9761;SDS011;4920;49.594;11.022;2022-11-02T15:18:51;8.27;;;1.95;;
9761;SDS011;4920;49.594;11.022;2022-11-02T15:21:27;10.70;;;2.70;;
9761;SDS011;4920;49.594;11.022;2022-11-02T15:26:44;7.90;;;2.30;;
9761;SDS011;4920;49.594;11.022;2022-11-02T15:29:23;6.40;;;2.10;;
9761;SDS011;4920;49.594;11.022;2022-11-02T15:31:58;8.97;;;2.03;;
9761;SDS011;4920;49.594;11.022;2022-11-02T15:34:30;6.37;;;2.20;;
9761;SDS011;4920;49.594;11.022;2022-11-02T15:37:01;11.60;;;2.20;;
9761;SDS011;4920;49.594;11.022;2022-11-02T15:39:31;10.47;;;2.27;;
9761;SDS011;4920;49.594;11.022;2022-11-02T15:42:03;7.70;;;2.30;;
9761;SDS011;4920;49.594;11.022;2022-11-02T15:44:44;10.67;;;2.10;;
9761;SDS011;4920;49.594;11.022;2022-11-02T15:47:53;7.40;;;1.90;;
9761;SDS011;4920;49.594;11.022;2022-11-02T15:50:29;10.40;;;2.40;;
9761;SDS011;4920;49.594;11.022;2022-11-02T15:53:10;5.67;;;2.00;;
9761;SDS011;4920;49.594;11.022;2022-11-02T15:55:52;8.70;;;2.13;;
9761;SDS011;4920;49.594;11.022;2022-11-02T15:58:29;13.57;;;2.20;;
9761;SDS011;4920;49.594;11.022;2022-11-02T16:01:08;6.73;;;2.20;;
9761;SDS011;4920;49.594;11.022;2022-11-02T16:03:44;10.30;;;2.83;;
9761;SDS011;4920;49.594;11.022;2022-11-02T16:06:13;8.70;;;2.40;;
9761;SDS011;4920;49.594;11.022;2022-11-02T16:08:49;7.73;;;2.63;;
9761;SDS011;4920;49.594;11.022;2022-11-02T16:11:18;9.63;;;2.60;;
9761;SDS011;4920;49.594;11.022;2022-11-02T16:13:47;10.07;;;2.50;;
9761;SDS011;4920;49.594;11.022;2022-11-02T16:16:35;9.17;;;2.10;;